sensor_id;sensor_type;location;lat;lon;timestamp;pressure;altitude;pressure_sealevel;temperature;humidity
11395;BME280;5753;54.402;10.220;2023-03-08T00:01:47;99640.84;;;7.42;49.45
11395;BME280;5753;54.402;10.220;2023-03-08T00:04:14;99650.66;;;7.92;47.91
11395;BME280;5753;54.402;10.220;2023-03-08T00:06:40;99651.47;;;7.86;47.67
11395;BME280;5753;54.402;10.220;2023-03-08T00:09:06;99654.78;;;6.86;48.87
11395;BME280;5753;54.402;10.220;2023-03-08T00:11:32;99652.56;;;8.15;47.02
11395;BME280;5753;54.402;10.220;2023-03-08T00:13:58;99660.06;;;5.78;52.91
11395;BME280;5753;54.402;10.220;2023-03-08T00:16:26;99653.25;;;7.96;48.00
11395;BME280;5753;54.402;10.220;2023-03-08T00:18:52;99655.75;;;7.84;48.13
11395;BME280;5753;54.402;10.220;2023-03-08T00:21:19;99647.28;;;7.97;47.21
11395;BME280;5753;54.402;10.220;2023-03-08T00:23:45;99662.25;;;8.58;45.27
11395;BME280;5753;54.402;10.220;2023-03-08T00:26:12;99659.91;;;7.70;48.27
11395;BME280;5753;54.402;10.220;2023-03-08T00:28:39;99663.03;;;8.47;46.23
11395;BME280;5753;54.402;10.220;2023-03-08T00:31:10;99662.03;;;8.29;46.03
11395;BME280;5753;54.402;10.220;2023-03-08T00:33:36;99671.81;;;7.62;48.34
11395;BME280;5753;54.402;10.220;2023-03-08T00:38:37;99662.84;;;8.18;46.38
11395;BME280;5753;54.402;10.220;2023-03-08T00:41:03;99667.44;;;8.70;45.28
11395;BME280;5753;54.402;10.220;2023-03-08T00:43:30;99675.72;;;7.26;49.39
11395;BME280;5753;54.402;10.220;2023-03-08T00:45:56;99681.47;;;7.95;47.00
11395;BME280;5753;54.402;10.220;2023-03-08T00:48:22;99684.78;;;7.80;47.81
11395;BME280;5753;54.402;10.220;2023-03-08T00:50:49;99690.66;;;7.68;48.11
11395;BME280;5753;54.402;10.220;2023-03-08T00:53:16;99690.25;;;7.27;49.53
11395;BME280;5753;54.402;10.220;2023-03-08T00:55:53;99685.91;;;8.14;47.33
11395;BME280;5753;54.402;10.220;2023-03-08T00:58:20;99696.22;;;8.23;47.17
11395;BME280;5753;54.402;10.220;2023-03-08T01:00:47;99685.53;;;7.67;48.53
11395;BME280;5753;54.402;10.220;2023-03-08T01:03:14;99688.09;;;7.67;47.94
11395;BME280;5753;54.402;10.220;2023-03-08T01:05:42;99693.72;;;8.31;46.48
11395;BME280;5753;54.402;10.220;2023-03-08T01:08:10;99686.78;;;8.14;47.63
11395;BME280;5753;54.402;10.220;2023-03-08T01:10:36;99678.22;;;8.15;47.12
11395;BME280;5753;54.402;10.220;2023-03-08T01:13:03;99681.72;;;8.30;46.49
11395;BME280;5753;54.402;10.220;2023-03-08T01:15:35;99681.31;;;7.75;48.26
11395;BME280;5753;54.402;10.220;2023-03-08T01:18:02;99683.41;;;8.25;46.90
11395;BME280;5753;54.402;10.220;2023-03-08T01:20:28;99683.50;;;8.34;46.60
11395;BME280;5753;54.402;10.220;2023-03-08T01:22:55;99688.47;;;7.18;48.38
11395;BME280;5753;54.402;10.220;2023-03-08T01:25:21;99688.88;;;8.75;45.74
11395;BME280;5753;54.402;10.220;2023-03-08T01:27:47;99689.06;;;7.81;47.47
11395;BME280;5753;54.402;10.220;2023-03-08T01:30:13;99688.66;;;8.40;46.26
11395;BME280;5753;54.402;10.220;2023-03-08T01:32:40;99688.69;;;7.40;48.72
11395;BME280;5753;54.402;10.220;2023-03-08T01:35:06;99689.06;;;7.81;47.61
11395;BME280;5753;54.402;10.220;2023-03-08T01:37:33;99686.34;;;7.63;48.41
11395;BME280;5753;54.402;10.220;2023-03-08T01:39:59;99677.09;;;7.81;48.08
11395;BME280;5753;54.402;10.220;2023-03-08T01:42:26;99683.06;;;6.95;50.93
11395;BME280;5753;54.402;10.220;2023-03-08T01:47:20;99675.66;;;8.14;48.15
11395;BME280;5753;54.402;10.220;2023-03-08T01:49:47;99679.88;;;8.07;48.54
11395;BME280;5753;54.402;10.220;2023-03-08T01:52:33;99678.22;;;8.17;47.56
11395;BME280;5753;54.402;10.220;2023-03-08T01:55:06;99678.56;;;7.55;48.84
11395;BME280;5753;54.402;10.220;2023-03-08T01:57:54;99673.28;;;7.40;49.39
11395;BME280;5753;54.402;10.220;2023-03-08T02:00:23;99680.72;;;7.12;50.86
11395;BME280;5753;54.402;10.220;2023-03-08T02:02:54;99677.38;;;7.21;50.19
11395;BME280;5753;54.402;10.220;2023-03-08T02:05:22;99690.97;;;7.14;51.26
11395;BME280;5753;54.402;10.220;2023-03-08T02:07:48;99681.22;;;7.63;50.51
11395;BME280;5753;54.402;10.220;2023-03-08T02:10:14;99680.81;;;7.23;51.72
11395;BME280;5753;54.402;10.220;2023-03-08T02:12:42;99677.41;;;8.24;49.20
11395;BME280;5753;54.402;10.220;2023-03-08T02:15:11;99667.59;;;7.68;50.20
11395;BME280;5753;54.402;10.220;2023-03-08T02:17:38;99683.91;;;6.94;51.65
11395;BME280;5753;54.402;10.220;2023-03-08T02:20:16;99674.16;;;7.40;51.81
11395;BME280;5753;54.402;10.220;2023-03-08T02:22:45;99670.72;;;7.38;51.74
11395;BME280;5753;54.402;10.220;2023-03-08T02:25:16;99662.59;;;7.85;51.03
11395;BME280;5753;54.402;10.220;2023-03-08T02:27:44;99671.59;;;6.63;53.62
11395;BME280;5753;54.402;10.220;2023-03-08T02:30:12;99660.81;;;7.78;50.39
11395;BME280;5753;54.402;10.220;2023-03-08T02:32:38;99669.66;;;7.16;52.11
11395;BME280;5753;54.402;10.220;2023-03-08T02:35:05;99661.09;;;8.11;50.19
11395;BME280;5753;54.402;10.220;2023-03-08T02:37:32;99664.00;;;8.68;48.75
11395;BME280;5753;54.402;10.220;2023-03-08T02:39:58;99669.09;;;8.57;48.88
11395;BME280;5753;54.402;10.220;2023-03-08T02:42:25;99668.53;;;7.78;51.37
11395;BME280;5753;54.402;10.220;2023-03-08T02:44:51;99670.47;;;8.09;50.01
11395;BME280;5753;54.402;10.220;2023-03-08T02:47:17;99669.63;;;7.15;52.97
11395;BME280;5753;54.402;10.220;2023-03-08T02:49:43;99664.16;;;7.66;50.67
11395;BME280;5753;54.402;10.220;2023-03-08T02:52:09;99661.69;;;7.80;51.26
11395;BME280;5753;54.402;10.220;2023-03-08T02:54:36;99663.91;;;7.40;52.57
11395;BME280;5753;54.402;10.220;2023-03-08T02:57:02;99667.03;;;7.12;52.99
11395;BME280;5753;54.402;10.220;2023-03-08T02:59:28;99670.38;;;7.08;52.71
11395;BME280;5753;54.402;10.220;2023-03-08T03:01:55;99668.00;;;7.23;52.98
11395;BME280;5753;54.402;10.220;2023-03-08T03:04:22;99661.09;;;8.11;50.70
11395;BME280;5753;54.402;10.220;2023-03-08T03:06:48;99659.75;;;7.54;51.67
11395;BME280;5753;54.402;10.220;2023-03-08T03:09:15;99664.22;;;7.74;52.70
11395;BME280;5753;54.402;10.220;2023-03-08T03:11:41;99666.00;;;7.85;51.84
11395;BME280;5753;54.402;10.220;2023-03-08T03:14:07;99665.13;;;7.82;51.95
11395;BME280;5753;54.402;10.220;2023-03-08T03:16:34;99667.13;;;7.19;53.00
11395;BME280;5753;54.402;10.220;2023-03-08T03:19:01;99671.91;;;7.74;51.85
11395;BME280;5753;54.402;10.220;2023-03-08T03:21:27;99674.59;;;7.90;51.61
11395;BME280;5753;54.402;10.220;2023-03-08T03:23:54;99680.53;;;6.99;54.27
11395;BME280;5753;54.402;10.220;2023-03-08T03:26:22;99674.03;;;8.30;51.24
11395;BME280;5753;54.402;10.220;2023-03-08T03:28:49;99672.56;;;6.73;54.92
11395;BME280;5753;54.402;10.220;2023-03-08T03:31:19;99674.63;;;7.97;51.63
11395;BME280;5753;54.402;10.220;2023-03-08T03:33:47;99677.66;;;8.61;50.10
11395;BME280;5753;54.402;10.220;2023-03-08T03:36:16;99685.09;;;8.23;51.23
11395;BME280;5753;54.402;10.220;2023-03-08T03:38:43;99680.84;;;8.25;50.61
11395;BME280;5753;54.402;10.220;2023-03-08T03:41:16;99688.28;;;7.91;52.57
11395;BME280;5753;54.402;10.220;2023-03-08T03:43:42;99686.13;;;8.46;50.06
11395;BME280;5753;54.402;10.220;2023-03-08T03:46:11;99693.97;;;8.66;50.45
11395;BME280;5753;54.402;10.220;2023-03-08T03:48:38;99689.84;;;9.03;49.09
11395;BME280;5753;54.402;10.220;2023-03-08T03:51:10;99696.16;;;8.11;51.42
11395;BME280;5753;54.402;10.220;2023-03-08T03:53:37;99696.84;;;7.93;52.48
11395;BME280;5753;54.402;10.220;2023-03-08T03:56:06;99704.13;;;8.49;51.76
11395;BME280;5753;54.402;10.220;2023-03-08T03:58:33;99702.91;;;8.03;52.98
11395;BME280;5753;54.402;10.220;2023-03-08T04:01:00;99714.63;;;6.94;55.09
11395;BME280;5753;54.402;10.220;2023-03-08T04:03:31;99701.06;;;7.83;54.37
11395;BME280;5753;54.402;10.220;2023-03-08T04:06:08;99702.78;;;7.86;55.04
11395;BME280;5753;54.402;10.220;2023-03-08T04:08:35;99711.13;;;7.62;55.21
11395;BME280;5753;54.402;10.220;2023-03-08T04:11:10;99710.31;;;7.65;55.75
11395;BME280;5753;54.402;10.220;2023-03-08T04:13:37;99713.75;;;7.70;55.48
11395;BME280;5753;54.402;10.220;2023-03-08T04:18:40;99707.31;;;8.16;54.45
11395;BME280;5753;54.402;10.220;2023-03-08T04:21:06;99709.03;;;8.18;53.48
11395;BME280;5753;54.402;10.220;2023-03-08T04:23:33;99712.63;;;8.39;53.91
11395;BME280;5753;54.402;10.220;2023-03-08T04:26:00;99712.75;;;8.57;52.77
11395;BME280;5753;54.402;10.220;2023-03-08T04:28:27;99712.38;;;8.08;54.44
11395;BME280;5753;54.402;10.220;2023-03-08T04:30:54;99719.00;;;7.03;57.73
11395;BME280;5753;54.402;10.220;2023-03-08T04:33:20;99718.09;;;9.00;53.18
11395;BME280;5753;54.402;10.220;2023-03-08T04:35:46;99715.53;;;7.75;57.20
11395;BME280;5753;54.402;10.220;2023-03-08T04:38:12;99720.34;;;7.45;56.88
11395;BME280;5753;54.402;10.220;2023-03-08T04:40:39;99717.63;;;7.31;57.93
11395;BME280;5753;54.402;10.220;2023-03-08T04:43:24;99716.03;;;8.38;56.39
11395;BME280;5753;54.402;10.220;2023-03-08T04:45:50;99701.13;;;9.66;51.97
11395;BME280;5753;54.402;10.220;2023-03-08T04:48:17;99701.91;;;9.24;52.76
11395;BME280;5753;54.402;10.220;2023-03-08T04:50:43;99716.47;;;9.29;52.42
11395;BME280;5753;54.402;10.220;2023-03-08T04:53:09;99715.25;;;7.48;56.45
11395;BME280;5753;54.402;10.220;2023-03-08T04:55:38;99719.06;;;7.08;60.27
11395;BME280;5753;54.402;10.220;2023-03-08T04:58:04;99729.28;;;9.06;53.90
11395;BME280;5753;54.402;10.220;2023-03-08T05:00:31;99717.56;;;8.14;55.98
11395;BME280;5753;54.402;10.220;2023-03-08T05:02:57;99717.41;;;7.96;55.75
11395;BME280;5753;54.402;10.220;2023-03-08T05:05:23;99712.28;;;7.10;59.95
11395;BME280;5753;54.402;10.220;2023-03-08T05:07:49;99712.78;;;6.81;59.62
11395;BME280;5753;54.402;10.220;2023-03-08T05:10:15;99708.00;;;7.97;57.72
11395;BME280;5753;54.402;10.220;2023-03-08T05:12:41;99711.31;;;7.85;56.40
11395;BME280;5753;54.402;10.220;2023-03-08T05:15:08;99714.34;;;8.40;56.37
11395;BME280;5753;54.402;10.220;2023-03-08T05:17:34;99713.06;;;9.33;52.76
11395;BME280;5753;54.402;10.220;2023-03-08T05:20:01;99720.38;;;8.48;55.17
11395;BME280;5753;54.402;10.220;2023-03-08T05:22:27;99719.06;;;9.29;53.96
11395;BME280;5753;54.402;10.220;2023-03-08T05:24:53;99721.91;;;7.32;58.83
11395;BME280;5753;54.402;10.220;2023-03-08T05:27:19;99717.22;;;8.98;54.51
11395;BME280;5753;54.402;10.220;2023-03-08T05:29:45;99718.97;;;7.79;58.24
11395;BME280;5753;54.402;10.220;2023-03-08T05:32:12;99729.97;;;6.91;61.54
11395;BME280;5753;54.402;10.220;2023-03-08T05:34:38;99720.50;;;8.65;55.73
11395;BME280;5753;54.402;10.220;2023-03-08T05:37:04;99710.78;;;8.23;57.19
11395;BME280;5753;54.402;10.220;2023-03-08T05:39:31;99714.63;;;8.92;55.08
11395;BME280;5753;54.402;10.220;2023-03-08T05:41:57;99711.78;;;8.44;56.99
11395;BME280;5753;54.402;10.220;2023-03-08T05:44:23;99714.84;;;7.96;56.59
11395;BME280;5753;54.402;10.220;2023-03-08T05:46:50;99712.13;;;7.79;59.55
11395;BME280;5753;54.402;10.220;2023-03-08T05:49:16;99711.97;;;7.61;59.12
11395;BME280;5753;54.402;10.220;2023-03-08T05:51:42;99710.09;;;7.46;60.97
11395;BME280;5753;54.402;10.220;2023-03-08T05:54:09;99700.63;;;8.38;58.09
11395;BME280;5753;54.402;10.220;2023-03-08T05:56:35;99706.53;;;8.31;57.87
11395;BME280;5753;54.402;10.220;2023-03-08T05:59:01;99707.78;;;8.95;56.26
11395;BME280;5753;54.402;10.220;2023-03-08T06:01:28;99704.31;;;8.81;56.50
11395;BME280;5753;54.402;10.220;2023-03-08T06:03:56;99709.41;;;8.70;57.15
11395;BME280;5753;54.402;10.220;2023-03-08T06:06:24;99708.88;;;7.99;60.50
11395;BME280;5753;54.402;10.220;2023-03-08T06:08:51;99708.59;;;8.85;56.34
11395;BME280;5753;54.402;10.220;2023-03-08T06:11:19;99707.09;;;7.90;59.57
11395;BME280;5753;54.402;10.220;2023-03-08T06:13:45;99711.59;;;8.17;57.17
11395;BME280;5753;54.402;10.220;2023-03-08T06:16:14;99714.19;;;8.21;58.17
11395;BME280;5753;54.402;10.220;2023-03-08T06:18:41;99717.06;;;8.64;56.28
11395;BME280;5753;54.402;10.220;2023-03-08T06:21:16;99715.63;;;9.26;54.11
11395;BME280;5753;54.402;10.220;2023-03-08T06:23:44;99719.72;;;8.79;54.27
11395;BME280;5753;54.402;10.220;2023-03-08T06:26:11;99724.19;;;9.26;54.24
11395;BME280;5753;54.402;10.220;2023-03-08T06:28:38;99722.44;;;9.11;54.33
11395;BME280;5753;54.402;10.220;2023-03-08T06:31:05;99717.38;;;9.42;53.33
11395;BME280;5753;54.402;10.220;2023-03-08T06:33:32;99725.63;;;8.65;55.30
11395;BME280;5753;54.402;10.220;2023-03-08T06:36:03;99726.78;;;9.41;53.65
11395;BME280;5753;54.402;10.220;2023-03-08T06:38:32;99720.88;;;10.11;51.63
11395;BME280;5753;54.402;10.220;2023-03-08T06:40:58;99723.47;;;9.96;51.73
11395;BME280;5753;54.402;10.220;2023-03-08T06:43:25;99722.59;;;10.09;51.43
11395;BME280;5753;54.402;10.220;2023-03-08T06:45:51;99720.88;;;10.19;50.28
11395;BME280;5753;54.402;10.220;2023-03-08T06:48:17;99717.41;;;9.62;52.02
11395;BME280;5753;54.402;10.220;2023-03-08T06:50:44;99718.50;;;8.27;56.15
11395;BME280;5753;54.402;10.220;2023-03-08T06:53:11;99718.78;;;8.67;55.30
11395;BME280;5753;54.402;10.220;2023-03-08T06:55:39;99719.56;;;7.53;59.48
11395;BME280;5753;54.402;10.220;2023-03-08T06:58:05;99725.00;;;7.85;56.61
11395;BME280;5753;54.402;10.220;2023-03-08T07:00:32;99717.53;;;8.11;57.60
11395;BME280;5753;54.402;10.220;2023-03-08T07:02:58;99719.75;;;6.93;60.81
11395;BME280;5753;54.402;10.220;2023-03-08T07:05:25;99717.97;;;8.72;56.81
11395;BME280;5753;54.402;10.220;2023-03-08T07:07:51;99710.91;;;8.41;57.56
11395;BME280;5753;54.402;10.220;2023-03-08T07:10:19;99714.72;;;7.82;59.32
11395;BME280;5753;54.402;10.220;2023-03-08T07:12:47;99707.94;;;9.45;54.36
11395;BME280;5753;54.402;10.220;2023-03-08T07:15:17;99705.34;;;9.29;55.71
11395;BME280;5753;54.402;10.220;2023-03-08T07:17:45;99708.88;;;10.08;52.94
11395;BME280;5753;54.402;10.220;2023-03-08T07:20:15;99715.22;;;8.46;56.87
11395;BME280;5753;54.402;10.220;2023-03-08T07:22:41;99713.06;;;9.27;54.78
11395;BME280;5753;54.402;10.220;2023-03-08T07:25:11;99716.09;;;8.45;56.30
11395;BME280;5753;54.402;10.220;2023-03-08T07:27:37;99713.03;;;9.18;55.10
11395;BME280;5753;54.402;10.220;2023-03-08T07:30:04;99713.06;;;9.32;54.43
11395;BME280;5753;54.402;10.220;2023-03-08T07:32:30;99714.63;;;8.98;55.03
11395;BME280;5753;54.402;10.220;2023-03-08T07:34:57;99720.88;;;10.54;52.37
11395;BME280;5753;54.402;10.220;2023-03-08T07:37:23;99722.78;;;8.27;55.29
11395;BME280;5753;54.402;10.220;2023-03-08T07:39:49;99729.44;;;9.61;53.78
11395;BME280;5753;54.402;10.220;2023-03-08T07:42:16;99739.59;;;9.19;54.33
11395;BME280;5753;54.402;10.220;2023-03-08T07:44:42;99736.34;;;9.94;52.77
11395;BME280;5753;54.402;10.220;2023-03-08T07:47:08;99731.91;;;9.23;54.11
11395;BME280;5753;54.402;10.220;2023-03-08T07:49:34;99735.41;;;9.53;53.09
11395;BME280;5753;54.402;10.220;2023-03-08T07:52:01;99737.13;;;9.54;53.23
11395;BME280;5753;54.402;10.220;2023-03-08T07:54:27;99735.84;;;8.56;55.34
11395;BME280;5753;54.402;10.220;2023-03-08T07:56:54;99730.28;;;9.53;53.69
11395;BME280;5753;54.402;10.220;2023-03-08T07:59:23;99732.88;;;10.62;50.53
11395;BME280;5753;54.402;10.220;2023-03-08T08:01:49;99733.66;;;9.42;53.17
11395;BME280;5753;54.402;10.220;2023-03-08T08:04:16;99742.28;;;10.80;50.33
11395;BME280;5753;54.402;10.220;2023-03-08T08:06:42;99743.66;;;8.75;54.67
11395;BME280;5753;54.402;10.220;2023-03-08T08:09:09;99742.13;;;9.09;53.65
11395;BME280;5753;54.402;10.220;2023-03-08T08:11:37;99742.31;;;9.87;51.90
11395;BME280;5753;54.402;10.220;2023-03-08T08:14:04;99744.28;;;7.45;56.48
11395;BME280;5753;54.402;10.220;2023-03-08T08:16:30;99742.13;;;9.08;52.60
11395;BME280;5753;54.402;10.220;2023-03-08T08:18:56;99748.00;;;8.87;53.62
11395;BME280;5753;54.402;10.220;2023-03-08T08:21:22;99744.72;;;9.14;52.52
11395;BME280;5753;54.402;10.220;2023-03-08T08:23:49;99745.69;;;9.46;52.10
11395;BME280;5753;54.402;10.220;2023-03-08T08:26:18;99745.00;;;8.21;54.38
11395;BME280;5753;54.402;10.220;2023-03-08T08:28:46;99749.47;;;8.45;54.08
11395;BME280;5753;54.402;10.220;2023-03-08T08:31:16;99750.56;;;8.86;54.87
11395;BME280;5753;54.402;10.220;2023-03-08T08:33:43;99754.91;;;8.97;53.39
11395;BME280;5753;54.402;10.220;2023-03-08T08:36:12;99755.19;;;9.86;53.37
11395;BME280;5753;54.402;10.220;2023-03-08T08:38:39;99759.50;;;10.57;50.62
11395;BME280;5753;54.402;10.220;2023-03-08T08:41:06;99759.31;;;9.18;53.06
11395;BME280;5753;54.402;10.220;2023-03-08T08:43:34;99749.22;;;8.13;54.98
11395;BME280;5753;54.402;10.220;2023-03-08T08:46:02;99752.28;;;8.85;54.40
11395;BME280;5753;54.402;10.220;2023-03-08T08:48:29;99753.06;;;8.73;54.07
11395;BME280;5753;54.402;10.220;2023-03-08T08:50:58;99750.84;;;9.56;52.96
11395;BME280;5753;54.402;10.220;2023-03-08T08:53:26;99751.66;;;9.45;52.33
11395;BME280;5753;54.402;10.220;2023-03-08T08:55:52;99758.06;;;7.56;56.45
11395;BME280;5753;54.402;10.220;2023-03-08T08:58:18;99764.16;;;7.65;56.22
11395;BME280;5753;54.402;10.220;2023-03-08T09:00:45;99758.59;;;9.72;53.48
11395;BME280;5753;54.402;10.220;2023-03-08T09:03:11;99760.22;;;8.03;54.96
11395;BME280;5753;54.402;10.220;2023-03-08T09:05:40;99764.94;;;7.57;56.16
11395;BME280;5753;54.402;10.220;2023-03-08T09:08:07;99756.94;;;10.29;52.00
11395;BME280;5753;54.402;10.220;2023-03-08T09:10:36;99762.56;;;8.90;52.71
11395;BME280;5753;54.402;10.220;2023-03-08T09:13:03;99761.25;;;10.44;50.48
11395;BME280;5753;54.402;10.220;2023-03-08T09:15:30;99773.19;;;9.90;50.81
11395;BME280;5753;54.402;10.220;2023-03-08T09:17:56;99770.47;;;9.28;51.98
11395;BME280;5753;54.402;10.220;2023-03-08T09:20:23;99773.25;;;10.60;49.87
11395;BME280;5753;54.402;10.220;2023-03-08T09:22:49;99768.09;;;10.33;49.45
11395;BME280;5753;54.402;10.220;2023-03-08T09:25:16;99776.59;;;11.02;47.72
11395;BME280;5753;54.402;10.220;2023-03-08T09:27:44;99766.38;;;10.65;49.20
11395;BME280;5753;54.402;10.220;2023-03-08T09:30:12;99767.75;;;8.97;51.94
11395;BME280;5753;54.402;10.220;2023-03-08T09:32:39;99762.91;;;9.90;50.82
11395;BME280;5753;54.402;10.220;2023-03-08T09:35:05;99753.28;;;11.35;47.36
11395;BME280;5753;54.402;10.220;2023-03-08T09:37:32;99761.63;;;11.83;46.64
11395;BME280;5753;54.402;10.220;2023-03-08T09:39:58;99772.38;;;10.13;50.29
11395;BME280;5753;54.402;10.220;2023-03-08T09:42:32;99762.94;;;9.93;50.54
11395;BME280;5753;54.402;10.220;2023-03-08T09:45:24;99764.66;;;10.37;49.96
11395;BME280;5753;54.402;10.220;2023-03-08T09:50:29;99764.66;;;10.34;48.87
11395;BME280;5753;54.402;10.220;2023-03-08T09:53:14;99766.41;;;10.47;48.71
11395;BME280;5753;54.402;10.220;2023-03-08T09:55:54;99761.06;;;9.31;51.42
11395;BME280;5753;54.402;10.220;2023-03-08T09:58:31;99761.22;;;10.20;49.78
11395;BME280;5753;54.402;10.220;2023-03-08T10:01:26;99765.38;;;9.43;51.25
11395;BME280;5753;54.402;10.220;2023-03-08T10:04:12;99764.44;;;9.18;52.62
11395;BME280;5753;54.402;10.220;2023-03-08T10:09:37;99762.56;;;8.90;52.64
11395;BME280;5753;54.402;10.220;2023-03-08T10:12:25;99759.16;;;8.94;52.82
11395;BME280;5753;54.402;10.220;2023-03-08T10:15:02;99762.09;;;9.99;51.46
11395;BME280;5753;54.402;10.220;2023-03-08T10:17:40;99756.88;;;10.89;49.64
11395;BME280;5753;54.402;10.220;2023-03-08T10:20:31;99751.09;;;12.11;47.26
11395;BME280;5753;54.402;10.220;2023-03-08T10:23:11;99756.09;;;10.43;48.88
11395;BME280;5753;54.402;10.220;2023-03-08T10:25:39;99759.50;;;10.58;48.28
11395;BME280;5753;54.402;10.220;2023-03-08T10:28:15;99749.94;;;11.06;48.40
11395;BME280;5753;54.402;10.220;2023-03-08T10:30:51;99744.19;;;12.11;46.79
11395;BME280;5753;54.402;10.220;2023-03-08T10:33:19;99744.69;;;11.24;47.15
11395;BME280;5753;54.402;10.220;2023-03-08T10:35:59;99744.06;;;12.26;46.49
11395;BME280;5753;54.402;10.220;2023-03-08T10:38:29;99740.38;;;11.29;46.53
11395;BME280;5753;54.402;10.220;2023-03-08T10:41:09;99730.47;;;12.95;44.62
11395;BME280;5753;54.402;10.220;2023-03-08T10:43:49;99726.50;;;14.49;42.65
11395;BME280;5753;54.402;10.220;2023-03-08T10:46:19;99733.06;;;13.63;42.51
11395;BME280;5753;54.402;10.220;2023-03-08T10:48:46;99733.03;;;12.08;44.59
11395;BME280;5753;54.402;10.220;2023-03-08T10:51:25;99733.44;;;12.58;44.20
11395;BME280;5753;54.402;10.220;2023-03-08T10:53:57;99732.13;;;12.99;43.81
11395;BME280;5753;54.402;10.220;2023-03-08T10:59:02;99737.63;;;14.04;43.05
11395;BME280;5753;54.402;10.220;2023-03-08T11:01:34;99738.59;;;13.97;42.28
11395;BME280;5753;54.402;10.220;2023-03-08T11:04:17;99735.25;;;13.30;43.42
11395;BME280;5753;54.402;10.220;2023-03-08T11:06:43;99725.47;;;12.80;42.92
11395;BME280;5753;54.402;10.220;2023-03-08T11:11:45;99738.31;;;12.87;41.76
11395;BME280;5753;54.402;10.220;2023-03-08T11:14:11;99732.53;;;13.39;43.46
11395;BME280;5753;54.402;10.220;2023-03-08T11:25:14;99730.00;;;11.45;45.24
11395;BME280;5753;54.402;10.220;2023-03-08T11:28:08;99735.34;;;13.16;42.48
11395;BME280;5753;54.402;10.220;2023-03-08T11:31:13;99737.72;;;13.98;40.36
11395;BME280;5753;54.402;10.220;2023-03-08T11:36:33;99732.22;;;15.11;37.50
11395;BME280;5753;54.402;10.220;2023-03-08T11:39:43;99725.97;;;15.63;37.49
11395;BME280;5753;54.402;10.220;2023-03-08T11:42:29;99721.16;;;16.19;35.84
11395;BME280;5753;54.402;10.220;2023-03-08T11:45:19;99720.88;;;16.64;36.02
11395;BME280;5753;54.402;10.220;2023-03-08T11:50:35;99726.44;;;16.16;35.57
11395;BME280;5753;54.402;10.220;2023-03-08T11:58:35;99720.16;;;12.05;40.23
11395;BME280;5753;54.402;10.220;2023-03-08T12:01:14;99724.78;;;11.51;42.28
11395;BME280;5753;54.402;10.220;2023-03-08T12:03:48;99715.19;;;12.71;41.21
11395;BME280;5753;54.402;10.220;2023-03-08T12:06:24;99707.19;;;14.66;38.48
11395;BME280;5753;54.402;10.220;2023-03-08T12:09:21;99705.75;;;15.36;37.30
11395;BME280;5753;54.402;10.220;2023-03-08T12:12:19;99702.53;;;13.84;37.18
11395;BME280;5753;54.402;10.220;2023-03-08T12:15:06;99710.94;;;12.67;39.03
11395;BME280;5753;54.402;10.220;2023-03-08T12:17:43;99708.47;;;14.42;37.00
11395;BME280;5753;54.402;10.220;2023-03-08T12:20:15;99697.44;;;15.22;35.30
11395;BME280;5753;54.402;10.220;2023-03-08T12:23:12;99710.97;;;14.94;36.49
11395;BME280;5753;54.402;10.220;2023-03-08T12:25:45;99696.75;;;15.14;35.73
11395;BME280;5753;54.402;10.220;2023-03-08T12:28:23;99703.25;;;15.33;35.49
11395;BME280;5753;54.402;10.220;2023-03-08T12:31:05;99700.44;;;15.42;36.28
11395;BME280;5753;54.402;10.220;2023-03-08T12:33:33;99699.63;;;15.40;35.84
11395;BME280;5753;54.402;10.220;2023-03-08T12:36:03;99704.50;;;14.72;36.11
11395;BME280;5753;54.402;10.220;2023-03-08T12:38:37;99699.84;;;14.43;36.53
11395;BME280;5753;54.402;10.220;2023-03-08T12:41:17;99699.06;;;13.85;37.86
11395;BME280;5753;54.402;10.220;2023-03-08T12:43:45;99697.63;;;14.69;36.71
11395;BME280;5753;54.402;10.220;2023-03-08T12:46:11;99700.88;;;13.19;38.74
11395;BME280;5753;54.402;10.220;2023-03-08T12:48:38;99698.00;;;14.48;37.22
11395;BME280;5753;54.402;10.220;2023-03-08T12:58:56;99697.91;;;12.79;39.33
11395;BME280;5753;54.402;10.220;2023-03-08T13:01:28;99699.03;;;16.71;34.41
11395;BME280;5753;54.402;10.220;2023-03-08T13:03:54;99696.50;;;16.68;33.69
11395;BME280;5753;54.402;10.220;2023-03-08T13:08:58;99699.69;;;17.66;32.20
11395;BME280;5753;54.402;10.220;2023-03-08T13:11:36;99693.22;;;17.79;31.43
11395;BME280;5753;54.402;10.220;2023-03-08T13:14:03;99699.31;;;18.58;30.40
11395;BME280;5753;54.402;10.220;2023-03-08T13:16:38;99696.75;;;19.95;28.71
11395;BME280;5753;54.402;10.220;2023-03-08T13:22:05;99700.75;;;21.80;26.90
11395;BME280;5753;54.402;10.220;2023-03-08T13:24:52;99706.06;;;20.02;26.98
11395;BME280;5753;54.402;10.220;2023-03-08T13:30:06;99697.00;;;18.23;28.25
11395;BME280;5753;54.402;10.220;2023-03-08T13:32:33;99705.03;;;18.17;29.33
11395;BME280;5753;54.402;10.220;2023-03-08T13:35:02;99706.16;;;18.60;29.02
11395;BME280;5753;54.402;10.220;2023-03-08T13:37:29;99696.19;;;19.43;29.07
11395;BME280;5753;54.402;10.220;2023-03-08T13:39:58;99699.97;;;20.22;26.69
11395;BME280;5753;54.402;10.220;2023-03-08T13:42:26;99706.09;;;18.86;28.49
11395;BME280;5753;54.402;10.220;2023-03-08T13:45:25;99704.78;;;19.00;28.74
11395;BME280;5753;54.402;10.220;2023-03-08T13:47:52;99717.28;;;17.59;31.04
11395;BME280;5753;54.402;10.220;2023-03-08T13:53:01;99704.81;;;22.22;25.00
11395;BME280;5753;54.402;10.220;2023-03-08T13:55:37;99706.97;;;23.47;23.96
11395;BME280;5753;54.402;10.220;2023-03-08T13:58:04;99711.88;;;26.54;21.17
11395;BME280;5753;54.402;10.220;2023-03-08T14:00:35;99706.22;;;28.19;18.96
11395;BME280;5753;54.402;10.220;2023-03-08T14:03:03;99703.88;;;27.79;18.46
11395;BME280;5753;54.402;10.220;2023-03-08T14:05:39;99708.53;;;25.98;19.59
11395;BME280;5753;54.402;10.220;2023-03-08T14:08:17;99701.44;;;23.20;22.03
11395;BME280;5753;54.402;10.220;2023-03-08T14:11:02;99713.84;;;20.46;24.64
11395;BME280;5753;54.402;10.220;2023-03-08T14:13:31;99720.88;;;17.55;27.86
11395;BME280;5753;54.402;10.220;2023-03-08T14:16:06;99707.13;;;18.82;27.58
11395;BME280;5753;54.402;10.220;2023-03-08T14:18:36;99704.84;;;23.22;24.63